메인 페이지
METAR-TAF:

METAR-TAF

공항 :

Salinas Municipal Airport

살리나스, 캘리포니아, 미국

위도: 36-39-49N, 경도: 121-36-29W, 고도: 25m

현재 날씨관측

예보는 22분 전, 18:53시(UTC)에 발표되었습니다.
북서10kt
온도 14°C
습도 77%
기압 1017 hPa
시정: 11.3km
고도 1200ft 상공 흐림

METAR: KSNS 131853Z 31010KT 7SM OVC012 14/10 A3002 RMK AO2 SLP174 T01440100

시각: 12:15 (19:15 UTC)

예보

예보는 1 시간 42분 전, 17:33시(UTC)에 발표되었습니다.
예보 대상 시간: 13일 18시부터 14일 18시까지 (UTC)
서북서8kt
시정: 10km
고도 1000ft 상공 흐림
13일 2000시부터 (UTC)
북서15kt, 순간 최대 풍속 20kt
시정: 10km
고도 1500ft 상공 구름 보통
14일 0100시부터 (UTC)
북서12kt
시정: 10km
고도 1000ft 상공 흐림
14일 0700시부터 (UTC)
북서8kt
시정: 10km
고도 700ft 상공 흐림
14일 1700시부터 (UTC)
서북서6kt
시정: 10km
고도 700ft 상공 구름 보통

TAF: KSNS 131733Z 1318/1418 30008KT P6SM OVC010 FM132000 31015G20KT P6SM SCT015 FM140100 32012KT P6SM OVC010 FM140700 31008KT P6SM OVC007 FM141700 30006KT P6SM SCT007

4,000개 이상의 공항 관측 자료 및 예보 (METAR 및 TAF 보고).

지도상에서 검색 가능한 기상관측소가 노란 점과 빨간 점으로 표시되어 있습니다.

기상관측소 명을 보려면 표시 위로 마우스를 이동하세요.

날씨 관측과 예보를 보려면 클릭하세요.

지도 변경 : 확대하려면 엑스 표시가 있는 녹색 버튼, 축소하려면 빼기 표시가 있는 녹색 버튼, 다음 페이지의 지도를 보려면 녹색 화살표를 클릭하세요.


METAR-TAF: